sensor_id;sensor_type;location;lat;lon;timestamp;P1;durP1;ratioP1;P2;durP2;ratioP2
30998;SDS011;20549;50.042;8.968;2024-02-14T00:00:33;5.20;;;3.67;;
30998;SDS011;20549;50.042;8.968;2024-02-14T00:02:59;4.17;;;3.67;;
30998;SDS011;20549;50.042;8.968;2024-02-14T00:05:26;4.00;;;3.20;;
30998;SDS011;20549;50.042;8.968;2024-02-14T00:07:52;4.77;;;3.93;;
30998;SDS011;20549;50.042;8.968;2024-02-14T00:10:19;8.13;;;4.70;;
30998;SDS011;20549;50.042;8.968;2024-02-14T00:12:45;5.87;;;3.77;;
30998;SDS011;20549;50.042;8.968;2024-02-14T00:15:12;4.80;;;3.70;;
30998;SDS011;20549;50.042;8.968;2024-02-14T00:17:39;5.47;;;3.10;;
30998;SDS011;20549;50.042;8.968;2024-02-14T00:20:05;4.60;;;3.13;;
30998;SDS011;20549;50.042;8.968;2024-02-14T00:22:32;4.37;;;3.50;;
30998;SDS011;20549;50.042;8.968;2024-02-14T00:24:59;6.23;;;3.87;;
30998;SDS011;20549;50.042;8.968;2024-02-14T00:27:25;7.20;;;4.67;;
30998;SDS011;20549;50.042;8.968;2024-02-14T00:29:52;6.63;;;4.97;;
30998;SDS011;20549;50.042;8.968;2024-02-14T00:32:18;8.13;;;5.13;;
30998;SDS011;20549;50.042;8.968;2024-02-14T00:34:45;8.97;;;4.90;;
30998;SDS011;20549;50.042;8.968;2024-02-14T00:37:11;6.17;;;4.07;;
30998;SDS011;20549;50.042;8.968;2024-02-14T00:39:38;6.20;;;3.70;;
30998;SDS011;20549;50.042;8.968;2024-02-14T00:42:05;8.73;;;4.73;;
30998;SDS011;20549;50.042;8.968;2024-02-14T00:44:31;7.70;;;4.70;;
30998;SDS011;20549;50.042;8.968;2024-02-14T00:46:58;8.57;;;4.83;;
30998;SDS011;20549;50.042;8.968;2024-02-14T00:49:27;9.60;;;5.73;;
30998;SDS011;20549;50.042;8.968;2024-02-14T00:51:53;8.80;;;4.77;;
30998;SDS011;20549;50.042;8.968;2024-02-14T00:54:20;10.20;;;5.03;;
30998;SDS011;20549;50.042;8.968;2024-02-14T00:56:47;8.33;;;4.53;;
30998;SDS011;20549;50.042;8.968;2024-02-14T00:59:13;9.87;;;5.13;;
30998;SDS011;20549;50.042;8.968;2024-02-14T01:01:40;5.93;;;4.30;;
30998;SDS011;20549;50.042;8.968;2024-02-14T01:04:06;7.90;;;4.47;;
30998;SDS011;20549;50.042;8.968;2024-02-14T01:06:33;6.40;;;3.90;;
30998;SDS011;20549;50.042;8.968;2024-02-14T01:08:59;10.73;;;3.90;;
30998;SDS011;20549;50.042;8.968;2024-02-14T01:11:26;6.23;;;3.30;;
30998;SDS011;20549;50.042;8.968;2024-02-14T01:13:53;3.50;;;2.90;;
30998;SDS011;20549;50.042;8.968;2024-02-14T01:16:19;4.37;;;2.53;;
30998;SDS011;20549;50.042;8.968;2024-02-14T01:18:46;4.50;;;2.70;;
30998;SDS011;20549;50.042;8.968;2024-02-14T01:21:12;3.50;;;3.20;;
30998;SDS011;20549;50.042;8.968;2024-02-14T01:23:39;3.87;;;2.97;;
30998;SDS011;20549;50.042;8.968;2024-02-14T01:26:06;5.20;;;3.53;;
30998;SDS011;20549;50.042;8.968;2024-02-14T01:28:32;5.30;;;3.43;;
30998;SDS011;20549;50.042;8.968;2024-02-14T01:30:59;4.80;;;3.03;;
30998;SDS011;20549;50.042;8.968;2024-02-14T01:33:25;6.57;;;3.80;;
30998;SDS011;20549;50.042;8.968;2024-02-14T01:35:52;6.37;;;3.90;;
30998;SDS011;20549;50.042;8.968;2024-02-14T01:38:19;6.40;;;3.97;;
30998;SDS011;20549;50.042;8.968;2024-02-14T01:40:45;5.53;;;2.93;;
30998;SDS011;20549;50.042;8.968;2024-02-14T01:43:12;4.87;;;3.53;;
30998;SDS011;20549;50.042;8.968;2024-02-14T01:45:38;6.07;;;4.27;;
30998;SDS011;20549;50.042;8.968;2024-02-14T01:48:05;7.60;;;3.87;;
30998;SDS011;20549;50.042;8.968;2024-02-14T01:50:32;5.40;;;3.50;;
30998;SDS011;20549;50.042;8.968;2024-02-14T01:52:58;6.67;;;3.83;;
30998;SDS011;20549;50.042;8.968;2024-02-14T01:55:25;3.53;;;3.00;;
30998;SDS011;20549;50.042;8.968;2024-02-14T01:57:51;4.67;;;2.00;;
30998;SDS011;20549;50.042;8.968;2024-02-14T02:00:18;2.47;;;2.17;;
30998;SDS011;20549;50.042;8.968;2024-02-14T02:02:44;3.90;;;2.20;;
30998;SDS011;20549;50.042;8.968;2024-02-14T02:05:11;2.50;;;2.00;;
30998;SDS011;20549;50.042;8.968;2024-02-14T02:07:38;6.83;;;3.20;;
30998;SDS011;20549;50.042;8.968;2024-02-14T02:10:04;5.27;;;3.07;;
30998;SDS011;20549;50.042;8.968;2024-02-14T02:12:31;3.97;;;2.73;;
30998;SDS011;20549;50.042;8.968;2024-02-14T02:14:57;5.87;;;3.10;;
30998;SDS011;20549;50.042;8.968;2024-02-14T02:17:24;5.80;;;2.73;;
30998;SDS011;20549;50.042;8.968;2024-02-14T02:19:53;5.93;;;3.10;;
30998;SDS011;20549;50.042;8.968;2024-02-14T02:22:17;5.83;;;3.30;;
30998;SDS011;20549;50.042;8.968;2024-02-14T02:24:44;4.50;;;3.00;;
30998;SDS011;20549;50.042;8.968;2024-02-14T02:27:10;3.57;;;2.80;;
30998;SDS011;20549;50.042;8.968;2024-02-14T02:29:37;3.97;;;3.20;;
30998;SDS011;20549;50.042;8.968;2024-02-14T02:32:03;6.70;;;3.17;;
30998;SDS011;20549;50.042;8.968;2024-02-14T02:34:30;5.43;;;3.47;;
30998;SDS011;20549;50.042;8.968;2024-02-14T02:36:57;11.73;;;4.90;;
30998;SDS011;20549;50.042;8.968;2024-02-14T02:39:23;5.77;;;2.83;;
30998;SDS011;20549;50.042;8.968;2024-02-14T02:41:50;4.73;;;3.60;;
30998;SDS011;20549;50.042;8.968;2024-02-14T02:44:16;4.87;;;3.50;;
30998;SDS011;20549;50.042;8.968;2024-02-14T02:46:43;4.63;;;3.30;;
30998;SDS011;20549;50.042;8.968;2024-02-14T02:49:10;5.20;;;3.27;;
30998;SDS011;20549;50.042;8.968;2024-02-14T02:51:36;6.40;;;3.70;;
30998;SDS011;20549;50.042;8.968;2024-02-14T02:54:03;7.07;;;3.30;;
30998;SDS011;20549;50.042;8.968;2024-02-14T02:56:29;6.23;;;3.30;;
30998;SDS011;20549;50.042;8.968;2024-02-14T02:58:56;6.70;;;3.20;;
30998;SDS011;20549;50.042;8.968;2024-02-14T03:01:22;4.63;;;3.33;;
30998;SDS011;20549;50.042;8.968;2024-02-14T03:03:49;3.90;;;2.87;;
30998;SDS011;20549;50.042;8.968;2024-02-14T03:06:16;3.57;;;2.37;;
30998;SDS011;20549;50.042;8.968;2024-02-14T03:08:42;4.10;;;2.97;;
30998;SDS011;20549;50.042;8.968;2024-02-14T03:11:09;4.17;;;2.87;;
30998;SDS011;20549;50.042;8.968;2024-02-14T03:13:35;2.67;;;2.10;;
30998;SDS011;20549;50.042;8.968;2024-02-14T03:16:02;4.40;;;2.10;;
30998;SDS011;20549;50.042;8.968;2024-02-14T03:18:29;2.83;;;2.33;;
30998;SDS011;20549;50.042;8.968;2024-02-14T03:20:55;3.30;;;2.20;;
30998;SDS011;20549;50.042;8.968;2024-02-14T03:23:22;4.00;;;2.40;;
30998;SDS011;20549;50.042;8.968;2024-02-14T03:25:48;4.40;;;2.33;;
30998;SDS011;20549;50.042;8.968;2024-02-14T03:28:15;5.13;;;2.77;;
30998;SDS011;20549;50.042;8.968;2024-02-14T03:30:41;5.47;;;2.73;;
30998;SDS011;20549;50.042;8.968;2024-02-14T03:33:08;4.13;;;2.47;;
30998;SDS011;20549;50.042;8.968;2024-02-14T03:35:35;3.33;;;2.07;;
30998;SDS011;20549;50.042;8.968;2024-02-14T03:38:01;2.73;;;2.30;;
30998;SDS011;20549;50.042;8.968;2024-02-14T03:40:28;3.00;;;2.20;;
30998;SDS011;20549;50.042;8.968;2024-02-14T03:42:54;2.70;;;2.07;;
30998;SDS011;20549;50.042;8.968;2024-02-14T03:45:21;2.60;;;1.97;;
30998;SDS011;20549;50.042;8.968;2024-02-14T03:47:48;4.43;;;2.00;;
30998;SDS011;20549;50.042;8.968;2024-02-14T03:50:14;2.63;;;2.03;;
30998;SDS011;20549;50.042;8.968;2024-02-14T03:52:41;2.17;;;1.80;;
30998;SDS011;20549;50.042;8.968;2024-02-14T03:55:07;2.50;;;1.73;;
30998;SDS011;20549;50.042;8.968;2024-02-14T03:57:34;2.50;;;1.97;;
30998;SDS011;20549;50.042;8.968;2024-02-14T04:00:00;2.20;;;1.80;;
30998;SDS011;20549;50.042;8.968;2024-02-14T04:02:27;2.60;;;1.73;;
30998;SDS011;20549;50.042;8.968;2024-02-14T04:04:54;2.27;;;1.57;;
30998;SDS011;20549;50.042;8.968;2024-02-14T04:07:20;1.90;;;1.80;;
30998;SDS011;20549;50.042;8.968;2024-02-14T04:09:47;1.87;;;1.70;;
30998;SDS011;20549;50.042;8.968;2024-02-14T04:12:13;2.23;;;1.70;;
30998;SDS011;20549;50.042;8.968;2024-02-14T04:14:40;2.03;;;1.80;;
30998;SDS011;20549;50.042;8.968;2024-02-14T04:17:07;2.00;;;1.80;;
30998;SDS011;20549;50.042;8.968;2024-02-14T04:19:33;2.73;;;1.50;;
30998;SDS011;20549;50.042;8.968;2024-02-14T04:22:00;2.37;;;1.87;;
30998;SDS011;20549;50.042;8.968;2024-02-14T04:24:26;1.73;;;1.63;;
30998;SDS011;20549;50.042;8.968;2024-02-14T04:26:53;3.00;;;1.80;;
30998;SDS011;20549;50.042;8.968;2024-02-14T04:29:19;1.77;;;1.60;;
30998;SDS011;20549;50.042;8.968;2024-02-14T04:31:46;4.37;;;2.40;;
30998;SDS011;20549;50.042;8.968;2024-02-14T04:34:13;5.87;;;2.13;;
30998;SDS011;20549;50.042;8.968;2024-02-14T04:36:39;5.40;;;1.90;;
30998;SDS011;20549;50.042;8.968;2024-02-14T04:39:06;1.83;;;1.57;;
30998;SDS011;20549;50.042;8.968;2024-02-14T04:41:32;2.60;;;1.63;;
30998;SDS011;20549;50.042;8.968;2024-02-14T04:43:59;2.83;;;1.90;;
30998;SDS011;20549;50.042;8.968;2024-02-14T04:46:26;3.13;;;2.30;;
30998;SDS011;20549;50.042;8.968;2024-02-14T04:48:52;4.13;;;2.63;;
30998;SDS011;20549;50.042;8.968;2024-02-14T04:51:19;3.93;;;2.30;;
30998;SDS011;20549;50.042;8.968;2024-02-14T04:53:45;4.53;;;2.60;;
30998;SDS011;20549;50.042;8.968;2024-02-14T04:56:12;6.10;;;2.13;;
30998;SDS011;20549;50.042;8.968;2024-02-14T04:58:39;2.87;;;1.80;;
30998;SDS011;20549;50.042;8.968;2024-02-14T05:01:05;2.30;;;1.80;;
30998;SDS011;20549;50.042;8.968;2024-02-14T05:03:32;3.17;;;1.50;;
30998;SDS011;20549;50.042;8.968;2024-02-14T05:05:58;2.67;;;1.50;;
30998;SDS011;20549;50.042;8.968;2024-02-14T05:08:25;2.97;;;1.80;;
30998;SDS011;20549;50.042;8.968;2024-02-14T05:10:51;2.17;;;1.73;;
30998;SDS011;20549;50.042;8.968;2024-02-14T05:13:18;1.57;;;1.47;;
30998;SDS011;20549;50.042;8.968;2024-02-14T05:15:45;3.20;;;1.50;;
30998;SDS011;20549;50.042;8.968;2024-02-14T05:18:11;2.73;;;1.80;;
30998;SDS011;20549;50.042;8.968;2024-02-14T05:20:38;3.77;;;1.40;;
30998;SDS011;20549;50.042;8.968;2024-02-14T05:23:04;1.93;;;1.30;;
30998;SDS011;20549;50.042;8.968;2024-02-14T05:25:31;3.37;;;1.53;;
30998;SDS011;20549;50.042;8.968;2024-02-14T05:27:58;2.47;;;1.47;;
30998;SDS011;20549;50.042;8.968;2024-02-14T05:30:24;1.80;;;1.23;;
30998;SDS011;20549;50.042;8.968;2024-02-14T05:32:51;2.93;;;2.63;;
30998;SDS011;20549;50.042;8.968;2024-02-14T05:35:17;2.50;;;1.40;;
30998;SDS011;20549;50.042;8.968;2024-02-14T05:37:44;1.67;;;1.50;;
30998;SDS011;20549;50.042;8.968;2024-02-14T05:40:11;1.60;;;1.50;;
30998;SDS011;20549;50.042;8.968;2024-02-14T05:42:37;1.67;;;1.50;;
30998;SDS011;20549;50.042;8.968;2024-02-14T05:45:04;3.03;;;1.70;;
30998;SDS011;20549;50.042;8.968;2024-02-14T05:47:30;3.87;;;1.63;;
30998;SDS011;20549;50.042;8.968;2024-02-14T05:49:57;3.67;;;1.60;;
30998;SDS011;20549;50.042;8.968;2024-02-14T05:52:24;2.27;;;1.40;;
30998;SDS011;20549;50.042;8.968;2024-02-14T05:54:50;2.53;;;1.77;;
30998;SDS011;20549;50.042;8.968;2024-02-14T05:57:17;4.30;;;2.03;;
30998;SDS011;20549;50.042;8.968;2024-02-14T05:59:43;2.43;;;1.33;;
30998;SDS011;20549;50.042;8.968;2024-02-14T06:02:10;2.80;;;1.37;;
30998;SDS011;20549;50.042;8.968;2024-02-14T06:04:36;2.17;;;1.57;;
30998;SDS011;20549;50.042;8.968;2024-02-14T06:07:03;2.23;;;1.50;;
30998;SDS011;20549;50.042;8.968;2024-02-14T06:09:30;2.43;;;1.40;;
30998;SDS011;20549;50.042;8.968;2024-02-14T06:11:56;2.73;;;1.63;;
30998;SDS011;20549;50.042;8.968;2024-02-14T06:14:23;2.87;;;1.50;;
30998;SDS011;20549;50.042;8.968;2024-02-14T06:16:49;4.17;;;1.67;;
30998;SDS011;20549;50.042;8.968;2024-02-14T06:19:16;1.73;;;1.60;;
30998;SDS011;20549;50.042;8.968;2024-02-14T06:21:43;2.80;;;1.50;;
30998;SDS011;20549;50.042;8.968;2024-02-14T06:24:09;3.67;;;1.57;;
30998;SDS011;20549;50.042;8.968;2024-02-14T06:26:36;2.73;;;1.40;;
30998;SDS011;20549;50.042;8.968;2024-02-14T06:29:02;3.40;;;1.63;;
30998;SDS011;20549;50.042;8.968;2024-02-14T06:31:29;1.52;;;1.40;;
30998;SDS011;20549;50.042;8.968;2024-02-14T06:33:56;1.65;;;1.55;;
30998;SDS011;20549;50.042;8.968;2024-02-14T06:36:22;2.80;;;1.70;;
30998;SDS011;20549;50.042;8.968;2024-02-14T06:38:49;2.20;;;1.17;;
30998;SDS011;20549;50.042;8.968;2024-02-14T06:41:15;2.80;;;1.50;;
30998;SDS011;20549;50.042;8.968;2024-02-14T06:43:42;1.83;;;1.70;;
30998;SDS011;20549;50.042;8.968;2024-02-14T06:46:08;1.77;;;1.67;;
30998;SDS011;20549;50.042;8.968;2024-02-14T06:48:35;3.13;;;1.60;;
30998;SDS011;20549;50.042;8.968;2024-02-14T06:51:02;1.83;;;1.50;;
30998;SDS011;20549;50.042;8.968;2024-02-14T06:53:28;3.20;;;2.37;;
30998;SDS011;20549;50.042;8.968;2024-02-14T06:55:55;4.10;;;3.45;;
30998;SDS011;20549;50.042;8.968;2024-02-14T06:58:21;3.23;;;3.00;;
30998;SDS011;20549;50.042;8.968;2024-02-14T07:00:48;2.42;;;2.00;;
30998;SDS011;20549;50.042;8.968;2024-02-14T07:03:15;2.07;;;1.90;;
30998;SDS011;20549;50.042;8.968;2024-02-14T07:05:41;2.70;;;1.73;;
30998;SDS011;20549;50.042;8.968;2024-02-14T07:08:08;3.40;;;2.00;;
30998;SDS011;20549;50.042;8.968;2024-02-14T07:10:34;2.47;;;1.70;;
30998;SDS011;20549;50.042;8.968;2024-02-14T07:13:01;2.60;;;1.70;;
30998;SDS011;20549;50.042;8.968;2024-02-14T07:15:28;2.57;;;1.93;;
30998;SDS011;20549;50.042;8.968;2024-02-14T07:17:55;3.60;;;1.70;;
30998;SDS011;20549;50.042;8.968;2024-02-14T07:20:21;1.90;;;1.60;;
30998;SDS011;20549;50.042;8.968;2024-02-14T07:22:47;2.20;;;1.57;;
30998;SDS011;20549;50.042;8.968;2024-02-14T07:25:14;2.67;;;1.33;;
30998;SDS011;20549;50.042;8.968;2024-02-14T07:27:40;1.60;;;1.50;;
30998;SDS011;20549;50.042;8.968;2024-02-14T07:30:07;1.83;;;1.70;;
30998;SDS011;20549;50.042;8.968;2024-02-14T07:32:34;2.13;;;1.70;;
30998;SDS011;20549;50.042;8.968;2024-02-14T07:35:02;2.17;;;1.43;;
30998;SDS011;20549;50.042;8.968;2024-02-14T07:37:27;2.00;;;1.37;;
30998;SDS011;20549;50.042;8.968;2024-02-14T07:39:53;4.80;;;1.80;;
30998;SDS011;20549;50.042;8.968;2024-02-14T07:42:20;3.77;;;2.10;;
30998;SDS011;20549;50.042;8.968;2024-02-14T07:44:47;2.10;;;1.63;;
30998;SDS011;20549;50.042;8.968;2024-02-14T07:47:13;3.67;;;1.60;;
30998;SDS011;20549;50.042;8.968;2024-02-14T07:49:40;2.10;;;1.60;;
30998;SDS011;20549;50.042;8.968;2024-02-14T07:52:06;3.03;;;1.90;;
30998;SDS011;20549;50.042;8.968;2024-02-14T07:54:33;3.40;;;1.80;;
30998;SDS011;20549;50.042;8.968;2024-02-14T07:57:00;2.87;;;1.73;;
30998;SDS011;20549;50.042;8.968;2024-02-14T07:59:26;1.95;;;1.47;;
30998;SDS011;20549;50.042;8.968;2024-02-14T08:01:53;3.97;;;1.90;;
30998;SDS011;20549;50.042;8.968;2024-02-14T08:04:19;1.97;;;1.70;;
30998;SDS011;20549;50.042;8.968;2024-02-14T08:06:46;3.50;;;1.87;;
30998;SDS011;20549;50.042;8.968;2024-02-14T08:09:13;2.92;;;2.02;;
30998;SDS011;20549;50.042;8.968;2024-02-14T08:11:39;2.45;;;1.70;;
30998;SDS011;20549;50.042;8.968;2024-02-14T08:14:06;5.27;;;1.80;;
30998;SDS011;20549;50.042;8.968;2024-02-14T08:16:32;3.67;;;2.58;;
30998;SDS011;20549;50.042;8.968;2024-02-14T08:18:59;2.92;;;1.95;;
30998;SDS011;20549;50.042;8.968;2024-02-14T08:21:26;1.90;;;1.62;;
30998;SDS011;20549;50.042;8.968;2024-02-14T08:23:55;2.08;;;1.80;;
30998;SDS011;20549;50.042;8.968;2024-02-14T08:26:21;3.00;;;2.25;;
30998;SDS011;20549;50.042;8.968;2024-02-14T08:28:48;3.67;;;2.53;;
30998;SDS011;20549;50.042;8.968;2024-02-14T08:31:15;3.10;;;2.40;;
30998;SDS011;20549;50.042;8.968;2024-02-14T08:33:41;2.73;;;1.70;;
30998;SDS011;20549;50.042;8.968;2024-02-14T08:36:08;1.62;;;1.52;;
30998;SDS011;20549;50.042;8.968;2024-02-14T08:38:34;3.55;;;2.20;;
30998;SDS011;20549;50.042;8.968;2024-02-14T08:41:01;3.27;;;1.72;;
30998;SDS011;20549;50.042;8.968;2024-02-14T08:43:27;3.05;;;1.50;;
30998;SDS011;20549;50.042;8.968;2024-02-14T08:45:54;2.87;;;1.87;;
30998;SDS011;20549;50.042;8.968;2024-02-14T08:48:21;1.75;;;1.62;;
30998;SDS011;20549;50.042;8.968;2024-02-14T08:50:47;2.10;;;1.57;;
30998;SDS011;20549;50.042;8.968;2024-02-14T08:53:14;1.75;;;1.65;;
30998;SDS011;20549;50.042;8.968;2024-02-14T08:55:40;2.90;;;1.67;;
30998;SDS011;20549;50.042;8.968;2024-02-14T08:58:07;2.02;;;1.62;;
30998;SDS011;20549;50.042;8.968;2024-02-14T09:00:34;2.85;;;1.62;;
30998;SDS011;20549;50.042;8.968;2024-02-14T09:03:00;2.20;;;1.55;;
30998;SDS011;20549;50.042;8.968;2024-02-14T09:05:27;3.05;;;1.62;;
30998;SDS011;20549;50.042;8.968;2024-02-14T09:07:56;2.62;;;1.45;;
30998;SDS011;20549;50.042;8.968;2024-02-14T09:10:22;1.60;;;1.50;;
30998;SDS011;20549;50.042;8.968;2024-02-14T09:12:49;1.60;;;1.50;;
30998;SDS011;20549;50.042;8.968;2024-02-14T09:15:16;1.85;;;1.37;;
30998;SDS011;20549;50.042;8.968;2024-02-14T09:17:42;2.70;;;2.25;;
30998;SDS011;20549;50.042;8.968;2024-02-14T09:20:09;1.40;;;1.30;;
30998;SDS011;20549;50.042;8.968;2024-02-14T09:22:35;1.72;;;1.62;;
30998;SDS011;20549;50.042;8.968;2024-02-14T09:25:02;2.87;;;1.67;;
30998;SDS011;20549;50.042;8.968;2024-02-14T09:27:28;1.57;;;1.40;;
30998;SDS011;20549;50.042;8.968;2024-02-14T09:29:55;1.92;;;1.20;;
30998;SDS011;20549;50.042;8.968;2024-02-14T09:32:22;2.83;;;1.37;;
30998;SDS011;20549;50.042;8.968;2024-02-14T09:34:48;3.83;;;1.32;;
30998;SDS011;20549;50.042;8.968;2024-02-14T09:37:15;2.02;;;1.62;;
30998;SDS011;20549;50.042;8.968;2024-02-14T09:39:41;1.15;;;1.07;;
30998;SDS011;20549;50.042;8.968;2024-02-14T09:42:09;1.47;;;1.37;;
30998;SDS011;20549;50.042;8.968;2024-02-14T09:44:35;2.00;;;1.20;;
30998;SDS011;20549;50.042;8.968;2024-02-14T09:47:01;1.62;;;1.47;;
30998;SDS011;20549;50.042;8.968;2024-02-14T09:49:28;1.75;;;1.65;;
30998;SDS011;20549;50.042;8.968;2024-02-14T09:51:54;1.75;;;1.50;;
30998;SDS011;20549;50.042;8.968;2024-02-14T09:54:21;2.05;;;1.60;;
30998;SDS011;20549;50.042;8.968;2024-02-14T09:56:48;3.55;;;1.55;;
30998;SDS011;20549;50.042;8.968;2024-02-14T09:59:17;1.70;;;1.60;;
30998;SDS011;20549;50.042;8.968;2024-02-14T10:01:43;2.62;;;1.85;;
30998;SDS011;20549;50.042;8.968;2024-02-14T10:04:10;2.45;;;2.08;;
30998;SDS011;20549;50.042;8.968;2024-02-14T10:06:37;2.08;;;1.98;;
30998;SDS011;20549;50.042;8.968;2024-02-14T10:09:03;2.20;;;2.00;;
30998;SDS011;20549;50.042;8.968;2024-02-14T10:11:30;2.37;;;1.90;;
30998;SDS011;20549;50.042;8.968;2024-02-14T10:13:57;2.30;;;1.82;;
30998;SDS011;20549;50.042;8.968;2024-02-14T10:16:23;2.77;;;1.65;;
30998;SDS011;20549;50.042;8.968;2024-02-14T10:18:49;2.25;;;1.90;;
30998;SDS011;20549;50.042;8.968;2024-02-14T10:21:16;1.87;;;1.70;;
30998;SDS011;20549;50.042;8.968;2024-02-14T10:23:43;3.83;;;2.10;;
30998;SDS011;20549;50.042;8.968;2024-02-14T10:26:09;1.82;;;1.72;;
30998;SDS011;20549;50.042;8.968;2024-02-14T10:28:36;1.42;;;1.32;;
30998;SDS011;20549;50.042;8.968;2024-02-14T10:31:05;2.47;;;1.50;;
30998;SDS011;20549;50.042;8.968;2024-02-14T10:33:29;2.10;;;1.57;;
30998;SDS011;20549;50.042;8.968;2024-02-14T10:35:56;2.00;;;1.40;;
30998;SDS011;20549;50.042;8.968;2024-02-14T10:38:22;1.60;;;1.50;;
30998;SDS011;20549;50.042;8.968;2024-02-14T10:40:49;1.87;;;1.70;;
30998;SDS011;20549;50.042;8.968;2024-02-14T10:43:15;2.37;;;2.10;;
30998;SDS011;20549;50.042;8.968;2024-02-14T10:45:42;1.65;;;1.52;;
30998;SDS011;20549;50.042;8.968;2024-02-14T10:48:11;1.90;;;1.70;;
30998;SDS011;20549;50.042;8.968;2024-02-14T10:50:35;2.90;;;1.62;;
30998;SDS011;20549;50.042;8.968;2024-02-14T10:53:05;1.90;;;1.80;;
30998;SDS011;20549;50.042;8.968;2024-02-14T10:55:29;1.72;;;1.55;;
30998;SDS011;20549;50.042;8.968;2024-02-14T10:57:55;1.98;;;1.60;;
30998;SDS011;20549;50.042;8.968;2024-02-14T11:00:22;1.85;;;1.75;;
30998;SDS011;20549;50.042;8.968;2024-02-14T11:02:48;2.50;;;1.90;;
30998;SDS011;20549;50.042;8.968;2024-02-14T11:05:15;2.98;;;2.05;;
30998;SDS011;20549;50.042;8.968;2024-02-14T11:07:45;1.92;;;1.57;;
30998;SDS011;20549;50.042;8.968;2024-02-14T11:10:12;3.33;;;2.02;;
30998;SDS011;20549;50.042;8.968;2024-02-14T11:12:37;2.70;;;1.70;;
30998;SDS011;20549;50.042;8.968;2024-02-14T11:15:10;2.10;;;1.65;;
30998;SDS011;20549;50.042;8.968;2024-02-14T11:17:42;2.15;;;1.85;;
30998;SDS011;20549;50.042;8.968;2024-02-14T11:20:17;1.42;;;1.32;;
30998;SDS011;20549;50.042;8.968;2024-02-14T11:22:53;1.47;;;1.37;;
30998;SDS011;20549;50.042;8.968;2024-02-14T11:25:16;1.85;;;1.45;;
30998;SDS011;20549;50.042;8.968;2024-02-14T11:27:45;1.40;;;1.30;;
30998;SDS011;20549;50.042;8.968;2024-02-14T11:30:09;3.85;;;1.70;;
30998;SDS011;20549;50.042;8.968;2024-02-14T11:32:36;3.00;;;1.50;;
30998;SDS011;20549;50.042;8.968;2024-02-14T11:35:03;1.82;;;1.45;;
30998;SDS011;20549;50.042;8.968;2024-02-14T11:37:29;2.08;;;1.50;;
30998;SDS011;20549;50.042;8.968;2024-02-14T11:39:56;1.65;;;1.52;;
30998;SDS011;20549;50.042;8.968;2024-02-14T11:42:22;2.77;;;1.80;;
30998;SDS011;20549;50.042;8.968;2024-02-14T11:44:49;2.95;;;1.70;;
30998;SDS011;20549;50.042;8.968;2024-02-14T11:47:16;2.62;;;1.90;;
30998;SDS011;20549;50.042;8.968;2024-02-14T11:49:42;1.80;;;1.70;;
30998;SDS011;20549;50.042;8.968;2024-02-14T11:52:11;3.02;;;2.17;;
30998;SDS011;20549;50.042;8.968;2024-02-14T11:54:38;1.95;;;1.70;;
30998;SDS011;20549;50.042;8.968;2024-02-14T11:57:05;1.87;;;1.77;;
30998;SDS011;20549;50.042;8.968;2024-02-14T11:59:31;2.25;;;1.80;;
30998;SDS011;20549;50.042;8.968;2024-02-14T12:01:58;1.55;;;1.45;;
30998;SDS011;20549;50.042;8.968;2024-02-14T12:04:24;1.70;;;1.60;;
30998;SDS011;20549;50.042;8.968;2024-02-14T12:06:51;1.52;;;1.42;;
30998;SDS011;20549;50.042;8.968;2024-02-14T12:09:18;2.22;;;1.80;;
30998;SDS011;20549;50.042;8.968;2024-02-14T12:11:44;2.08;;;1.87;;
30998;SDS011;20549;50.042;8.968;2024-02-14T12:14:11;2.22;;;2.02;;
30998;SDS011;20549;50.042;8.968;2024-02-14T12:16:37;1.85;;;1.70;;
30998;SDS011;20549;50.042;8.968;2024-02-14T12:19:14;5.00;;;1.80;;
30998;SDS011;20549;50.042;8.968;2024-02-14T12:21:40;2.08;;;1.92;;
30998;SDS011;20549;50.042;8.968;2024-02-14T12:24:09;2.90;;;1.42;;
30998;SDS011;20549;50.042;8.968;2024-02-14T12:26:36;3.10;;;1.72;;
30998;SDS011;20549;50.042;8.968;2024-02-14T12:29:05;1.85;;;1.47;;
30998;SDS011;20549;50.042;8.968;2024-02-14T12:31:31;2.30;;;1.67;;
30998;SDS011;20549;50.042;8.968;2024-02-14T12:33:58;2.00;;;1.50;;
30998;SDS011;20549;50.042;8.968;2024-02-14T12:36:33;1.72;;;1.62;;
30998;SDS011;20549;50.042;8.968;2024-02-14T12:38:59;2.17;;;1.42;;
30998;SDS011;20549;50.042;8.968;2024-02-14T12:41:26;1.50;;;1.40;;
30998;SDS011;20549;50.042;8.968;2024-02-14T12:43:52;1.30;;;1.20;;
30998;SDS011;20549;50.042;8.968;2024-02-14T12:46:19;2.08;;;1.65;;
30998;SDS011;20549;50.042;8.968;2024-02-14T12:48:46;2.08;;;1.40;;
30998;SDS011;20549;50.042;8.968;2024-02-14T12:51:12;2.50;;;1.80;;
30998;SDS011;20549;50.042;8.968;2024-02-14T12:53:39;2.35;;;1.42;;
30998;SDS011;20549;50.042;8.968;2024-02-14T12:56:06;2.17;;;1.62;;
30998;SDS011;20549;50.042;8.968;2024-02-14T12:58:32;2.25;;;1.52;;
30998;SDS011;20549;50.042;8.968;2024-02-14T13:00:59;1.40;;;1.30;;
30998;SDS011;20549;50.042;8.968;2024-02-14T13:03:25;3.58;;;2.10;;
30998;SDS011;20549;50.042;8.968;2024-02-14T13:05:52;1.17;;;1.15;;
30998;SDS011;20549;50.042;8.968;2024-02-14T13:08:18;2.17;;;1.37;;
30998;SDS011;20549;50.042;8.968;2024-02-14T13:10:45;2.40;;;1.57;;
30998;SDS011;20549;50.042;8.968;2024-02-14T13:13:11;1.85;;;1.50;;
30998;SDS011;20549;50.042;8.968;2024-02-14T13:15:38;2.35;;;1.62;;
30998;SDS011;20549;50.042;8.968;2024-02-14T13:18:05;2.15;;;1.95;;
30998;SDS011;20549;50.042;8.968;2024-02-14T13:20:31;3.00;;;1.82;;
30998;SDS011;20549;50.042;8.968;2024-02-14T13:22:58;1.42;;;1.32;;
30998;SDS011;20549;50.042;8.968;2024-02-14T13:25:24;1.65;;;1.55;;
30998;SDS011;20549;50.042;8.968;2024-02-14T13:27:51;2.45;;;1.67;;
30998;SDS011;20549;50.042;8.968;2024-02-14T13:30:18;2.90;;;1.52;;
30998;SDS011;20549;50.042;8.968;2024-02-14T13:32:44;1.65;;;1.10;;
30998;SDS011;20549;50.042;8.968;2024-02-14T13:35:11;2.33;;;1.42;;
30998;SDS011;20549;50.042;8.968;2024-02-14T13:37:37;2.65;;;1.25;;
30998;SDS011;20549;50.042;8.968;2024-02-14T13:40:04;3.40;;;2.10;;
30998;SDS011;20549;50.042;8.968;2024-02-14T13:42:31;1.22;;;1.12;;
30998;SDS011;20549;50.042;8.968;2024-02-14T13:44:57;1.55;;;1.45;;
30998;SDS011;20549;50.042;8.968;2024-02-14T13:47:24;1.70;;;1.50;;
30998;SDS011;20549;50.042;8.968;2024-02-14T13:49:51;1.60;;;1.50;;
30998;SDS011;20549;50.042;8.968;2024-02-14T13:52:17;2.40;;;1.80;;
30998;SDS011;20549;50.042;8.968;2024-02-14T13:54:44;1.90;;;1.50;;
30998;SDS011;20549;50.042;8.968;2024-02-14T13:57:10;1.30;;;1.20;;
30998;SDS011;20549;50.042;8.968;2024-02-14T13:59:37;1.22;;;1.10;;
30998;SDS011;20549;50.042;8.968;2024-02-14T14:02:03;3.00;;;2.17;;
30998;SDS011;20549;50.042;8.968;2024-02-14T14:04:30;3.80;;;1.47;;
30998;SDS011;20549;50.042;8.968;2024-02-14T14:06:57;1.62;;;1.42;;
30998;SDS011;20549;50.042;8.968;2024-02-14T14:09:23;1.77;;;1.32;;
30998;SDS011;20549;50.042;8.968;2024-02-14T14:11:50;2.47;;;1.60;;
30998;SDS011;20549;50.042;8.968;2024-02-14T14:14:16;2.17;;;1.60;;
30998;SDS011;20549;50.042;8.968;2024-02-14T14:16:43;1.70;;;1.40;;
30998;SDS011;20549;50.042;8.968;2024-02-14T14:19:10;2.15;;;1.40;;
30998;SDS011;20549;50.042;8.968;2024-02-14T14:21:36;1.60;;;1.50;;
30998;SDS011;20549;50.042;8.968;2024-02-14T14:24:03;1.70;;;1.60;;
30998;SDS011;20549;50.042;8.968;2024-02-14T14:26:32;1.40;;;1.10;;
30998;SDS011;20549;50.042;8.968;2024-02-14T14:28:56;1.65;;;1.55;;
30998;SDS011;20549;50.042;8.968;2024-02-14T14:31:23;1.77;;;1.60;;
30998;SDS011;20549;50.042;8.968;2024-02-14T14:33:49;1.80;;;1.70;;
30998;SDS011;20549;50.042;8.968;2024-02-14T14:36:16;1.60;;;1.40;;
30998;SDS011;20549;50.042;8.968;2024-02-14T14:38:42;1.70;;;1.60;;
30998;SDS011;20549;50.042;8.968;2024-02-14T14:41:09;2.33;;;1.60;;
30998;SDS011;20549;50.042;8.968;2024-02-14T14:43:36;1.50;;;1.40;;